Time;durP1;ratioP1;P1;durP2;ratioP2;P2;SDS_P1;SDS_P2;PMS_P1;PMS_P2;Temp;Humidity;BMP_temperature;BMP_pressure;BME280_temperature;BME280_humidity;BME280_pressure;Samples;Min_cycle;Max_cycle;Signal;HPM_P1;HPM_P2
2023/10/23 00:02:01;;;;;;;0.10;0.10;;;;;;;;;;4867861;29;20498;-93
2023/10/23 00:04:27;;;;;;;0.10;0.10;;;;;;;;;;4868009;29;20044;-93
2023/10/23 00:06:53;;;;;;;0.10;0.10;;;;;;;;;;4868150;29;20055;-94
2023/10/23 00:09:20;;;;;;;0.10;0.10;;;;;;;;;;4883781;29;20048;-95
2023/10/23 00:11:46;;;;;;;0.10;0.10;;;;;;;;;;4883902;29;20072;-96
2023/10/23 00:14:12;;;;;;;0.10;0.10;;;;;;;;;;4883286;29;20479;-94
2023/10/23 00:16:38;;;;;;;0.10;0.10;;;;;;;;;;4883541;29;20044;-93
2023/10/23 00:19:04;;;;;;;0.10;0.10;;;;;;;;;;4867584;29;20041;-95
2023/10/23 00:21:30;;;;;;;0.10;0.10;;;;;;;;;;4883114;29;20136;-93
2023/10/23 00:23:56;;;;;;;0.10;0.10;;;;;;;;;;4867979;29;20092;-94
2023/10/23 00:26:22;;;;;;;0.10;0.10;;;;;;;;;;4882883;29;20080;-93
2023/10/23 00:28:49;;;;;;;0.10;0.10;;;;;;;;;;4882749;29;20044;-93
2023/10/23 00:31:15;;;;;;;0.10;0.10;;;;;;;;;;4882934;29;20095;-94
2023/10/23 00:33:41;;;;;;;0.10;0.10;;;;;;;;;;4882582;29;20048;-94
2023/10/23 00:36:07;;;;;;;0.10;0.10;;;;;;;;;;4883190;29;20049;-95
2023/10/23 00:38:33;;;;;;;0.10;0.10;;;;;;;;;;4867840;29;20141;-94
2023/10/23 00:40:59;;;;;;;0.10;0.10;;;;;;;;;;4899154;29;20037;-93
2023/10/23 00:43:25;;;;;;;0.10;0.10;;;;;;;;;;4866945;29;20044;-94
2023/10/23 00:45:59;;;;;;;0.10;0.10;;;;;;;;;;4883210;29;20045;-96
2023/10/23 00:48:25;;;;;;;0.10;0.10;;;;;;;;;;4867802;29;20096;-94
2023/10/23 00:50:51;;;;;;;0.10;0.10;;;;;;;;;;4899070;29;20155;-94
2023/10/23 00:53:22;;;;;;;0.10;0.10;;;;;;;;;;4883203;29;20052;-95
2023/10/23 00:55:48;;;;;;;0.10;0.10;;;;;;;;;;4867403;29;20052;-94
2023/10/23 00:58:14;;;;;;;0.10;0.10;;;;;;;;;;4882866;29;20127;-93
2023/10/23 01:00:40;;;;;;;0.10;0.10;;;;;;;;;;4867262;29;20083;-95
2023/10/23 01:03:07;;;;;;;0.10;0.10;;;;;;;;;;4867572;29;20055;-96
2023/10/23 01:05:33;;;;;;;0.10;0.10;;;;;;;;;;4883101;29;20040;-94
2023/10/23 01:07:59;;;;;;;0.10;0.10;;;;;;;;;;4851528;29;20048;-95
2023/10/23 01:10:25;;;;;;;0.10;0.10;;;;;;;;;;4897888;29;20052;-95
2023/10/23 01:12:53;;;;;;;0.10;0.10;;;;;;;;;;4866729;29;20051;-95
2023/10/23 01:15:19;;;;;;;0.10;0.10;;;;;;;;;;4883492;29;20056;-93
2023/10/23 01:17:45;;;;;;;0.10;0.10;;;;;;;;;;4883709;29;20041;-94
2023/10/23 01:20:11;;;;;;;0.10;0.10;;;;;;;;;;4883582;29;20410;-94
2023/10/23 01:22:37;;;;;;;0.10;0.10;;;;;;;;;;4882466;29;20041;-94
2023/10/23 01:25:04;;;;;;;0.10;0.10;;;;;;;;;;4882493;29;20220;-93
2023/10/23 01:27:29;;;;;;;0.10;0.10;;;;;;;;;;4866450;29;20067;-94
2023/10/23 01:29:56;;;;;;;0.10;0.10;;;;;;;;;;4866236;29;20502;-94
2023/10/23 01:32:22;;;;;;;0.10;0.10;;;;;;;;;;4881785;29;20131;-93
2023/10/23 01:34:48;;;;;;;0.10;0.10;;;;;;;;;;4866223;29;20041;-94
2023/10/23 01:37:13;;;;;;;0.10;0.10;;;;;;;;;;4866230;29;20044;-94
2023/10/23 01:39:40;;;;;;;0.10;0.10;;;;;;;;;;4882413;29;20534;-96
2023/10/23 01:55:40;;;;;;;0.10;0.10;;;;;;;;;;4790789;29;20055;-93
2023/10/23 01:58:06;;;;;;;0.10;0.10;;;;;;;;;;4815589;29;20137;-93
2023/10/23 02:00:36;;;;;;;0.10;0.10;;;;;;;;;;4812018;29;20185;-96
2023/10/23 02:03:02;;;;;;;0.10;0.10;;;;;;;;;;4852351;29;20053;-96
2023/10/23 02:05:28;;;;;;;0.10;0.10;;;;;;;;;;4868909;29;20052;-93
2023/10/23 02:07:54;;;;;;;0.10;0.10;;;;;;;;;;4896918;29;20048;-92
2023/10/23 02:10:23;;;;;;;0.10;0.10;;;;;;;;;;4897204;29;20084;-93
2023/10/23 02:12:49;;;;;;;0.10;0.10;;;;;;;;;;4881264;29;20104;-93
2023/10/23 02:15:16;;;;;;;0.10;0.10;;;;;;;;;;4866141;29;20041;-92
2023/10/23 02:17:42;;;;;;;0.10;0.10;;;;;;;;;;4866360;29;20102;-93
2023/10/23 02:20:08;;;;;;;0.10;0.10;;;;;;;;;;4896614;29;20075;-94
2023/10/23 02:22:35;;;;;;;0.10;0.10;;;;;;;;;;4881777;29;20101;-92
2023/10/23 02:25:01;;;;;;;0.10;0.10;;;;;;;;;;4881378;29;20093;-95
2023/10/23 02:27:28;;;;;;;0.10;0.10;;;;;;;;;;4866065;29;20058;-93
2023/10/23 02:29:54;;;;;;;0.10;0.10;;;;;;;;;;4881652;29;20053;-94
2023/10/23 02:32:20;;;;;;;0.10;0.10;;;;;;;;;;4866275;29;20067;-95
2023/10/23 02:34:47;;;;;;;0.10;0.10;;;;;;;;;;4881064;29;20040;-92
2023/10/23 02:37:19;;;;;;;0.30;0.30;;;;;;;;;;4885568;29;20048;-94
2023/10/23 02:39:47;;;;;;;0.10;0.10;;;;;;;;;;4886233;29;20059;-94
2023/10/23 02:42:16;;;;;;;0.10;0.10;;;;;;;;;;4870557;29;20165;-94
2023/10/23 02:44:45;;;;;;;0.10;0.10;;;;;;;;;;4884702;29;20494;-96
2023/10/23 02:47:16;;;;;;;0.10;0.10;;;;;;;;;;4885214;29;20044;-95
2023/10/23 02:49:42;;;;;;;0.10;0.10;;;;;;;;;;4869631;29;20459;-96
2023/10/23 02:52:11;;;;;;;0.10;0.10;;;;;;;;;;4886658;29;20104;-95
2023/10/23 02:54:55;;;;;;;0.10;0.10;;;;;;;;;;4870447;29;20052;-96
2023/10/23 02:57:21;;;;;;;0.10;0.10;;;;;;;;;;4865933;29;20048;-92
2023/10/23 02:59:47;;;;;;;0.10;0.10;;;;;;;;;;4880879;29;20040;-95
2023/10/23 03:02:13;;;;;;;0.10;0.10;;;;;;;;;;4896835;29;20044;-93
2023/10/23 03:04:39;;;;;;;0.10;0.10;;;;;;;;;;4865643;29;20188;-94
2023/10/23 03:07:05;;;;;;;0.10;0.10;;;;;;;;;;4882980;29;20084;-94
2023/10/23 03:09:31;;;;;;;0.10;0.10;;;;;;;;;;4868970;29;20203;-94
2023/10/23 03:11:57;;;;;;;0.10;0.10;;;;;;;;;;4899741;29;20495;-94
2023/10/23 03:14:23;;;;;;;0.10;0.10;;;;;;;;;;4884030;29;20045;-95
2023/10/23 03:16:49;;;;;;;0.10;0.10;;;;;;;;;;4884322;29;20043;-94
2023/10/23 03:19:15;;;;;;;0.10;0.10;;;;;;;;;;4884194;29;20112;-93
2023/10/23 03:21:41;;;;;;;0.10;0.10;;;;;;;;;;4868886;29;20123;-95
2023/10/23 03:24:08;;;;;;;0.17;0.17;;;;;;;;;;4868617;29;20066;-94
2023/10/23 03:26:34;;;;;;;0.10;0.10;;;;;;;;;;4884252;29;20050;-94
2023/10/23 03:29:00;;;;;;;0.10;0.10;;;;;;;;;;4868494;29;20486;-94
2023/10/23 03:31:26;;;;;;;0.10;0.10;;;;;;;;;;4884077;29;20047;-94
2023/10/23 03:33:52;;;;;;;0.10;0.10;;;;;;;;;;4868605;29;20055;-94
2023/10/23 03:36:18;;;;;;;0.10;0.10;;;;;;;;;;4869115;29;20044;-94
2023/10/23 03:38:44;;;;;;;0.10;0.10;;;;;;;;;;4884167;29;20044;-96
2023/10/23 03:41:10;;;;;;;0.13;0.13;;;;;;;;;;4884286;29;20041;-95
2023/10/23 03:43:36;;;;;;;0.10;0.10;;;;;;;;;;4868632;29;20184;-93
2023/10/23 03:46:05;;;;;;;0.10;0.10;;;;;;;;;;4868731;29;20056;-94
2023/10/23 03:48:34;;;;;;;0.10;0.10;;;;;;;;;;4869069;29;20135;-96
2023/10/23 03:51:00;;;;;;;0.10;0.10;;;;;;;;;;4883688;29;20136;-94
2023/10/23 03:53:26;;;;;;;0.10;0.10;;;;;;;;;;4883790;29;20478;-96
2023/10/23 03:55:52;;;;;;;0.10;0.10;;;;;;;;;;4868575;29;20041;-96
2023/10/23 03:58:18;;;;;;;0.10;0.10;;;;;;;;;;4868348;29;20043;-96
2023/10/23 04:00:44;;;;;;;0.10;0.10;;;;;;;;;;4883713;29;20561;-95
2023/10/23 04:03:13;;;;;;;0.10;0.10;;;;;;;;;;4868059;29;20091;-94
2023/10/23 04:05:40;;;;;;;0.10;0.10;;;;;;;;;;4868259;29;20165;-93
2023/10/23 04:08:06;;;;;;;0.10;0.10;;;;;;;;;;4867873;29;20040;-93
2023/10/23 04:10:32;;;;;;;0.10;0.10;;;;;;;;;;4867966;29;20056;-94
2023/10/23 04:12:58;;;;;;;0.10;0.10;;;;;;;;;;4883872;29;20052;-94
2023/10/23 04:15:26;;;;;;;0.13;0.13;;;;;;;;;;4867765;29;20040;-95
2023/10/23 04:17:53;;;;;;;0.10;0.10;;;;;;;;;;4867990;29;20060;-94
2023/10/23 04:20:22;;;;;;;0.10;0.10;;;;;;;;;;4870127;29;20047;-94
2023/10/23 04:22:48;;;;;;;0.10;0.10;;;;;;;;;;4883563;29;20040;-94
2023/10/23 04:25:14;;;;;;;0.10;0.10;;;;;;;;;;4867777;29;20097;-95
2023/10/23 04:27:40;;;;;;;0.10;0.10;;;;;;;;;;4867804;29;20047;-93
2023/10/23 04:30:06;;;;;;;0.10;0.10;;;;;;;;;;4867679;29;20056;-94
2023/10/23 04:32:32;;;;;;;0.10;0.10;;;;;;;;;;4867554;29;20056;-94
2023/10/23 04:34:59;;;;;;;0.10;0.10;;;;;;;;;;4882904;29;20451;-95
2023/10/23 04:37:25;;;;;;;0.10;0.10;;;;;;;;;;4882746;29;20051;-94
2023/10/23 04:39:51;;;;;;;0.10;0.10;;;;;;;;;;4867624;29;20131;-93
2023/10/23 04:42:17;;;;;;;0.10;0.10;;;;;;;;;;4898512;29;20585;-94
2023/10/23 04:44:43;;;;;;;0.10;0.10;;;;;;;;;;4867343;29;20048;-95
2023/10/23 04:47:09;;;;;;;0.10;0.10;;;;;;;;;;4867472;29;20096;-96
2023/10/23 04:49:35;;;;;;;0.10;0.10;;;;;;;;;;4867204;29;20045;-93
2023/10/23 04:52:01;;;;;;;0.10;0.10;;;;;;;;;;4882663;29;20047;-94
2023/10/23 04:54:27;;;;;;;0.10;0.10;;;;;;;;;;4867076;29;20052;-94
2023/10/23 04:56:53;;;;;;;0.10;0.10;;;;;;;;;;4867696;29;20099;-93
2023/10/23 04:59:19;;;;;;;0.10;0.10;;;;;;;;;;4866689;29;20045;-94
2023/10/23 05:01:45;;;;;;;0.10;0.10;;;;;;;;;;4866945;29;20482;-95
2023/10/23 05:04:11;;;;;;;0.10;0.10;;;;;;;;;;4866851;29;20100;-93
2023/10/23 05:06:38;;;;;;;0.10;0.10;;;;;;;;;;4882190;29;20092;-94
2023/10/23 05:09:04;;;;;;;0.10;0.10;;;;;;;;;;4897669;29;20044;-93
2023/10/23 05:11:31;;;;;;;0.10;0.10;;;;;;;;;;4881996;29;20061;-94
2023/10/23 05:13:57;;;;;;;0.10;0.10;;;;;;;;;;4866865;29;20135;-94
2023/10/23 05:16:23;;;;;;;0.10;0.10;;;;;;;;;;4882236;29;20076;-93
2023/10/23 05:18:49;;;;;;;0.10;0.10;;;;;;;;;;4866903;29;20075;-95
2023/10/23 05:21:15;;;;;;;0.10;0.10;;;;;;;;;;4882075;29;20044;-94
2023/10/23 05:23:42;;;;;;;0.10;0.10;;;;;;;;;;4882111;29;20080;-94
2023/10/23 05:26:10;;;;;;;0.10;0.10;;;;;;;;;;4867283;29;20046;-94
2023/10/23 05:28:38;;;;;;;0.10;0.10;;;;;;;;;;4866361;29;20107;-93
2023/10/23 05:31:04;;;;;;;0.10;0.10;;;;;;;;;;4866735;29;20075;-94
2023/10/23 05:33:30;;;;;;;0.10;0.10;;;;;;;;;;4869486;29;20045;-92
2023/10/23 05:36:05;;;;;;;0.10;0.10;;;;;;;;;;4883520;29;20047;-93
2023/10/23 05:38:32;;;;;;;0.10;0.10;;;;;;;;;;4881732;29;20037;-94
2023/10/23 05:40:58;;;;;;;0.10;0.10;;;;;;;;;;4882660;29;20043;-93
2023/10/23 05:43:27;;;;;;;0.10;0.10;;;;;;;;;;4866605;29;20096;-94
2023/10/23 05:45:53;;;;;;;0.10;0.10;;;;;;;;;;4866154;29;20048;-93
2023/10/23 05:48:19;;;;;;;0.10;0.10;;;;;;;;;;4865871;29;20070;-92
2023/10/23 05:50:45;;;;;;;0.10;0.10;;;;;;;;;;4881582;29;20561;-95
2023/10/23 05:53:11;;;;;;;0.10;0.10;;;;;;;;;;4881181;29;20040;-94
2023/10/23 05:55:37;;;;;;;0.10;0.10;;;;;;;;;;4881612;29;20036;-95
2023/10/23 05:58:03;;;;;;;0.10;0.10;;;;;;;;;;4866121;29;20044;-94
2023/10/23 06:00:30;;;;;;;0.10;0.10;;;;;;;;;;4866115;29;20501;-95
2023/10/23 06:02:56;;;;;;;0.10;0.10;;;;;;;;;;4881407;29;20044;-93
2023/10/23 06:05:22;;;;;;;0.10;0.10;;;;;;;;;;4866013;29;20052;-93
2023/10/23 06:07:48;;;;;;;0.20;0.20;;;;;;;;;;4881451;29;20117;-92
2023/10/23 06:10:14;;;;;;;0.10;0.10;;;;;;;;;;4866041;29;20060;-94
2023/10/23 06:12:40;;;;;;;0.10;0.10;;;;;;;;;;4881483;29;20053;-92
2023/10/23 06:15:07;;;;;;;0.10;0.10;;;;;;;;;;4865799;29;20101;-92
2023/10/23 06:17:33;;;;;;;0.10;0.10;;;;;;;;;;4866192;29;20443;-94
2023/10/23 06:20:00;;;;;;;0.10;0.10;;;;;;;;;;4865850;29;20036;-95
2023/10/23 06:22:26;;;;;;;0.10;0.10;;;;;;;;;;4865995;29;20048;-93
2023/10/23 06:24:52;;;;;;;0.10;0.10;;;;;;;;;;4896701;29;20041;-94
2023/10/23 06:27:18;;;;;;;0.10;0.10;;;;;;;;;;4865955;29;20446;-95
2023/10/23 06:29:44;;;;;;;0.10;0.10;;;;;;;;;;4881248;29;20517;-92
2023/10/23 06:32:13;;;;;;;0.10;0.10;;;;;;;;;;4882141;29;20379;-93
2023/10/23 06:34:39;;;;;;;0.10;0.10;;;;;;;;;;4880995;29;20045;-92
2023/10/23 06:37:04;;;;;;;0.10;0.10;;;;;;;;;;4865478;29;20045;-91
2023/10/23 06:39:30;;;;;;;0.10;0.10;;;;;;;;;;4865912;29;20388;-92
2023/10/23 06:41:56;;;;;;;0.10;0.10;;;;;;;;;;4883471;29;20052;-90
2023/10/23 06:44:22;;;;;;;0.10;0.10;;;;;;;;;;4871426;29;20041;-94
2023/10/23 06:46:48;;;;;;;0.20;0.20;;;;;;;;;;4889686;29;20093;-94
2023/10/23 06:49:15;;;;;;;0.10;0.10;;;;;;;;;;4887772;29;20048;-94
2023/10/23 06:51:41;;;;;;;0.10;0.10;;;;;;;;;;4885125;29;20071;-93
2023/10/23 06:54:07;;;;;;;0.10;0.10;;;;;;;;;;4872203;29;20048;-93
2023/10/23 06:56:33;;;;;;;0.10;0.10;;;;;;;;;;4869808;29;20100;-93
2023/10/23 06:58:59;;;;;;;0.10;0.10;;;;;;;;;;4869641;29;20112;-94
2023/10/23 07:01:25;;;;;;;0.10;0.10;;;;;;;;;;4869533;29;20479;-93
2023/10/23 07:03:51;;;;;;;0.10;0.10;;;;;;;;;;4871747;29;20052;-94
2023/10/23 07:06:20;;;;;;;0.10;0.10;;;;;;;;;;4873749;29;20053;-96
2023/10/23 07:08:51;;;;;;;0.10;0.10;;;;;;;;;;4854852;29;20044;-94
2023/10/23 07:11:18;;;;;;;0.10;0.10;;;;;;;;;;4868706;29;20095;-94
2023/10/23 07:13:45;;;;;;;0.10;0.10;;;;;;;;;;4868847;29;20056;-94
2023/10/23 07:16:11;;;;;;;0.10;0.10;;;;;;;;;;4888228;29;20076;-91
2023/10/23 07:18:37;;;;;;;0.10;0.10;;;;;;;;;;4884206;29;20048;-92
2023/10/23 07:21:03;;;;;;;0.10;0.10;;;;;;;;;;4869985;29;20047;-95
2023/10/23 07:23:29;;;;;;;0.10;0.10;;;;;;;;;;4884211;29;20055;-95
2023/10/23 07:26:02;;;;;;;0.10;0.10;;;;;;;;;;4869703;29;20052;-92
2023/10/23 07:28:28;;;;;;;0.10;0.10;;;;;;;;;;4870205;29;20052;-94
2023/10/23 07:30:54;;;;;;;0.10;0.10;;;;;;;;;;4885214;29;20127;-96
2023/10/23 07:33:20;;;;;;;0.10;0.10;;;;;;;;;;4885717;29;20060;-92
2023/10/23 07:35:46;;;;;;;0.10;0.10;;;;;;;;;;4883907;29;20041;-93
2023/10/23 07:38:12;;;;;;;0.10;0.10;;;;;;;;;;4868226;29;20044;-95
2023/10/23 07:40:47;;;;;;;0.10;0.10;;;;;;;;;;4868832;29;20041;-95
2023/10/23 07:43:13;;;;;;;0.10;0.10;;;;;;;;;;4884037;29;20130;-93
2023/10/23 07:45:41;;;;;;;0.10;0.10;;;;;;;;;;4884030;29;20490;-94
2023/10/23 07:51:08;;;;;;;0.10;0.10;;;;;;;;;;4888040;29;20100;-94
2023/10/23 07:53:37;;;;;;;0.10;0.10;;;;;;;;;;4883459;29;20059;-93
2023/10/23 07:56:04;;;;;;;0.10;0.10;;;;;;;;;;4868177;29;20455;-94
2023/10/23 07:58:30;;;;;;;0.20;0.20;;;;;;;;;;4883220;29;20044;-93
2023/10/23 08:01:09;;;;;;;0.10;0.10;;;;;;;;;;4868604;29;20095;-94
2023/10/23 08:03:35;;;;;;;0.17;0.17;;;;;;;;;;4869005;29;20502;-93
2023/10/23 08:06:03;;;;;;;0.22;0.22;;;;;;;;;;4867698;29;20527;-93
2023/10/23 08:08:29;;;;;;;0.22;0.22;;;;;;;;;;4867664;29;20044;-92
2023/10/23 08:10:55;;;;;;;0.20;0.20;;;;;;;;;;4882701;29;20107;-93
2023/10/23 08:13:21;;;;;;;0.10;0.10;;;;;;;;;;4867323;29;20139;-92
2023/10/23 08:15:47;;;;;;;0.10;0.10;;;;;;;;;;4882453;29;20173;-94
2023/10/23 08:18:13;;;;;;;0.10;0.10;;;;;;;;;;4882777;29;20099;-89
2023/10/23 08:20:39;;;;;;;0.10;0.10;;;;;;;;;;4882382;29;20541;-93
2023/10/23 08:23:05;;;;;;;0.17;0.17;;;;;;;;;;4867561;29;20044;-95
2023/10/23 08:25:31;;;;;;;0.10;0.10;;;;;;;;;;4866765;29;20036;-89
2023/10/23 08:27:57;;;;;;;0.10;0.10;;;;;;;;;;4881627;29;20131;-90
2023/10/23 08:30:23;;;;;;;0.15;0.15;;;;;;;;;;4897312;29;20119;-90
2023/10/23 08:32:49;;;;;;;0.10;0.10;;;;;;;;;;4897212;29;20071;-91
2023/10/23 08:35:16;;;;;;;0.10;0.10;;;;;;;;;;4881645;29;20499;-91
2023/10/23 08:37:42;;;;;;;0.10;0.10;;;;;;;;;;4881844;29;20052;-91
2023/10/23 08:40:08;;;;;;;0.10;0.10;;;;;;;;;;4897398;29;20096;-90
2023/10/23 08:42:34;;;;;;;0.10;0.10;;;;;;;;;;4881945;29;20076;-91
2023/10/23 08:45:00;;;;;;;0.10;0.10;;;;;;;;;;4881704;29;20045;-90
2023/10/23 08:47:26;;;;;;;0.15;0.15;;;;;;;;;;4881691;29;20135;-90
2023/10/23 08:49:53;;;;;;;0.20;0.20;;;;;;;;;;4881137;29;20570;-88
2023/10/23 08:52:20;;;;;;;0.15;0.15;;;;;;;;;;4866321;29;20513;-87
2023/10/23 08:54:46;;;;;;;0.20;0.20;;;;;;;;;;4879395;29;20048;-88
2023/10/23 08:57:12;;;;;;;0.10;0.10;;;;;;;;;;4863550;29;20099;-89
2023/10/23 08:59:41;;;;;;;0.10;0.10;;;;;;;;;;4880844;29;20521;-88
2023/10/23 09:02:13;;;;;;;0.17;0.17;;;;;;;;;;4878071;29;20518;-88
2023/10/23 09:04:39;;;;;;;0.20;0.20;;;;;;;;;;4880288;29;20079;-88
2023/10/23 09:07:05;;;;;;;0.20;0.20;;;;;;;;;;4881295;29;20071;-88
2023/10/23 09:09:31;;;;;;;0.17;0.17;;;;;;;;;;4880999;29;20497;-90
2023/10/23 09:11:57;;;;;;;0.30;0.30;;;;;;;;;;4881651;29;20140;-93
2023/10/23 09:14:24;;;;;;;0.20;0.20;;;;;;;;;;4881259;29;20466;-93
2023/10/23 09:16:51;;;;;;;0.10;0.10;;;;;;;;;;4865924;29;20124;-91
2023/10/23 09:19:24;;;;;;;0.10;0.10;;;;;;;;;;4878815;29;20041;-93
2023/10/23 09:21:52;;;;;;;0.10;0.10;;;;;;;;;;4876612;29;20513;-92
2023/10/23 09:24:19;;;;;;;0.20;0.20;;;;;;;;;;4863050;29;20083;-91
2023/10/23 09:26:45;;;;;;;0.45;0.45;;;;;;;;;;4881532;29;20052;-92
2023/10/23 09:29:11;;;;;;;0.10;0.10;;;;;;;;;;4878626;29;20447;-93
2023/10/23 09:31:37;;;;;;;0.13;0.13;;;;;;;;;;4863063;29;20144;-93
2023/10/23 09:34:03;;;;;;;0.85;0.85;;;;;;;;;;4862812;29;20100;-92
2023/10/23 09:36:31;;;;;;;0.20;0.20;;;;;;;;;;4847546;29;20072;-92
2023/10/23 09:38:58;;;;;;;0.10;0.10;;;;;;;;;;4847529;29;20044;-91
2023/10/23 09:41:24;;;;;;;0.10;0.10;;;;;;;;;;4847105;29;20036;-91
2023/10/23 09:43:50;;;;;;;0.20;0.20;;;;;;;;;;4869643;29;20049;-92
2023/10/23 09:46:16;;;;;;;0.10;0.10;;;;;;;;;;4862258;29;20045;-91
2023/10/23 09:48:43;;;;;;;0.20;0.20;;;;;;;;;;4862733;29;20052;-91
2023/10/23 09:51:14;;;;;;;0.20;0.20;;;;;;;;;;4862542;29;20175;-94
2023/10/23 09:53:41;;;;;;;0.20;0.20;;;;;;;;;;4871504;29;20056;-92
2023/10/23 09:56:07;;;;;;;0.50;0.50;;;;;;;;;;4881072;29;20052;-93
2023/10/23 09:58:35;;;;;;;0.10;0.10;;;;;;;;;;4865686;29;20092;-93
2023/10/23 10:01:01;;;;;;;0.20;0.20;;;;;;;;;;4865789;29;20118;-92
2023/10/23 10:03:27;;;;;;;0.10;0.10;;;;;;;;;;4865500;29;20068;-93
2023/10/23 10:05:53;;;;;;;0.10;0.10;;;;;;;;;;4865916;29;20110;-90
2023/10/23 10:08:19;;;;;;;0.17;0.17;;;;;;;;;;4866290;29;20041;-91
2023/10/23 10:10:45;;;;;;;0.20;0.20;;;;;;;;;;4866604;29;20064;-89
2023/10/23 10:13:20;;;;;;;0.10;0.10;;;;;;;;;;4885615;29;20036;-91
2023/10/23 10:16:00;;;;;;;0.10;0.10;;;;;;;;;;4885994;29;20126;-93
2023/10/23 10:18:26;;;;;;;0.10;0.10;;;;;;;;;;4885161;29;20076;-95
2023/10/23 10:20:55;;;;;;;0.10;0.10;;;;;;;;;;4884953;29;20040;-91
2023/10/23 10:23:21;;;;;;;0.45;0.25;;;;;;;;;;4884929;29;20140;-91
2023/10/23 10:25:47;;;;;;;0.30;0.30;;;;;;;;;;4884538;29;20045;-87
2023/10/23 10:28:14;;;;;;;0.10;0.10;;;;;;;;;;4870867;29;20041;-92
2023/10/23 10:30:49;;;;;;;0.10;0.10;;;;;;;;;;5016028;23;20048;-96
2023/10/23 10:33:16;;;;;;;0.10;0.10;;;;;;;;;;4895287;29;20050;-89
2023/10/23 10:35:42;;;;;;;0.10;0.10;;;;;;;;;;4921870;29;20047;-91
2023/10/23 10:38:12;;;;;;;0.15;0.15;;;;;;;;;;4901767;29;20480;-91
2023/10/23 10:40:55;;;;;;;0.20;0.20;;;;;;;;;;4887780;29;20064;-93
2023/10/23 10:43:21;;;;;;;0.10;0.10;;;;;;;;;;4888453;29;20051;-91
2023/10/23 10:45:47;;;;;;;0.20;0.20;;;;;;;;;;4887551;29;20075;-91
2023/10/23 10:48:15;;;;;;;0.13;0.13;;;;;;;;;;4887498;29;20047;-93
2023/10/23 10:50:41;;;;;;;0.40;0.40;;;;;;;;;;4887319;29;20048;-91
2023/10/23 10:53:07;;;;;;;0.20;0.20;;;;;;;;;;4887343;29;20040;-91
2023/10/23 10:55:34;;;;;;;0.30;0.30;;;;;;;;;;4887462;29;20099;-93
2023/10/23 10:58:00;;;;;;;0.20;0.20;;;;;;;;;;4887525;29;20055;-94
2023/10/23 11:00:30;;;;;;;0.10;0.10;;;;;;;;;;4921370;29;20039;-92
2023/10/23 11:02:56;;;;;;;0.20;0.20;;;;;;;;;;4924850;29;20047;-90
2023/10/23 11:05:22;;;;;;;0.20;0.20;;;;;;;;;;4923895;29;20046;-91
2023/10/23 11:07:51;;;;;;;0.40;0.40;;;;;;;;;;4924901;29;20055;-92
2023/10/23 11:10:17;;;;;;;0.10;0.10;;;;;;;;;;4925178;29;20123;-92
2023/10/23 11:12:43;;;;;;;0.20;0.20;;;;;;;;;;4957054;29;20065;-91
2023/10/23 11:15:10;;;;;;;0.10;0.10;;;;;;;;;;4924926;29;20389;-91
2023/10/23 11:17:36;;;;;;;0.20;0.20;;;;;;;;;;4956589;28;20050;-91
2023/10/23 11:20:06;;;;;;;0.20;0.20;;;;;;;;;;4924859;29;20114;-93
2023/10/23 11:22:32;;;;;;;0.20;0.20;;;;;;;;;;4940662;29;20484;-92
2023/10/23 11:24:58;;;;;;;0.10;0.10;;;;;;;;;;4924582;29;20052;-91
2023/10/23 11:27:24;;;;;;;0.35;0.35;;;;;;;;;;4923954;29;20043;-91
2023/10/23 11:29:50;;;;;;;0.20;0.20;;;;;;;;;;4924560;29;20044;-92
2023/10/23 11:32:16;;;;;;;0.10;0.10;;;;;;;;;;4924446;29;20058;-92
2023/10/23 11:34:43;;;;;;;0.10;0.10;;;;;;;;;;4940410;29;20493;-92
2023/10/23 11:37:09;;;;;;;0.10;0.10;;;;;;;;;;4924460;29;20035;-91
2023/10/23 11:39:36;;;;;;;0.10;0.10;;;;;;;;;;4924421;29;20035;-92
2023/10/23 11:42:02;;;;;;;0.10;0.10;;;;;;;;;;5217873;23;20075;-92
2023/10/23 11:44:29;;;;;;;0.10;0.10;;;;;;;;;;4909003;29;20051;-91
2023/10/23 11:46:56;;;;;;;0.10;0.10;;;;;;;;;;4908466;29;20039;-91
2023/10/23 11:49:24;;;;;;;0.10;0.10;;;;;;;;;;4939717;29;20039;-91
2023/10/23 11:51:51;;;;;;;0.10;0.10;;;;;;;;;;4924621;29;20094;-91
2023/10/23 11:54:17;;;;;;;0.10;0.10;;;;;;;;;;4924459;29;20131;-91
2023/10/23 11:56:43;;;;;;;0.10;0.10;;;;;;;;;;4924144;29;20051;-92
2023/10/23 11:59:14;;;;;;;0.10;0.10;;;;;;;;;;4908384;29;20139;-90
2023/10/23 12:01:41;;;;;;;0.10;0.10;;;;;;;;;;4907491;29;20150;-89
2023/10/23 12:04:07;;;;;;;0.10;0.10;;;;;;;;;;4923446;29;20453;-90
2023/10/23 12:06:34;;;;;;;0.20;0.20;;;;;;;;;;4921494;29;20549;-89
2023/10/23 12:09:00;;;;;;;0.10;0.10;;;;;;;;;;4919824;29;20074;-88
2023/10/23 12:11:26;;;;;;;0.10;0.10;;;;;;;;;;4904408;29;20075;-89
2023/10/23 12:13:52;;;;;;;0.10;0.10;;;;;;;;;;4904498;29;20048;-89
2023/10/23 12:16:18;;;;;;;0.10;0.10;;;;;;;;;;4904535;29;20403;-90
2023/10/23 12:18:44;;;;;;;0.10;0.10;;;;;;;;;;4904859;29;20102;-89
2023/10/23 12:21:11;;;;;;;0.15;0.13;;;;;;;;;;4904507;29;20099;-89
2023/10/23 12:23:38;;;;;;;0.10;0.10;;;;;;;;;;4965506;23;20675;-89
2023/10/23 12:26:04;;;;;;;0.30;0.30;;;;;;;;;;4904660;29;20549;-90
2023/10/23 12:28:30;;;;;;;0.10;0.10;;;;;;;;;;4901276;29;20127;-89
2023/10/23 12:30:55;;;;;;;0.20;0.20;;;;;;;;;;4886058;29;20044;-91
2023/10/23 12:33:21;;;;;;;0.10;0.10;;;;;;;;;;4888310;29;20047;-91
2023/10/23 12:35:47;;;;;;;0.10;0.10;;;;;;;;;;4886988;29;20129;-90
2023/10/23 12:38:13;;;;;;;0.10;0.10;;;;;;;;;;4886483;29;20498;-90
2023/10/23 12:40:41;;;;;;;0.20;0.20;;;;;;;;;;4898616;29;20044;-89
2023/10/23 12:43:06;;;;;;;0.22;0.22;;;;;;;;;;4904962;29;20048;-89
2023/10/23 12:45:32;;;;;;;0.38;0.38;;;;;;;;;;4917607;29;20200;-91
2023/10/23 12:48:01;;;;;;;0.30;0.30;;;;;;;;;;4901699;29;20044;-90
2023/10/23 12:50:28;;;;;;;0.20;0.20;;;;;;;;;;4885480;29;20374;-90
2023/10/23 12:52:55;;;;;;;0.10;0.10;;;;;;;;;;4900400;29;20510;-90
2023/10/23 12:55:20;;;;;;;0.10;0.10;;;;;;;;;;4884685;29;20067;-89
2023/10/23 12:57:46;;;;;;;0.25;0.25;;;;;;;;;;4884878;29;20494;-90
2023/10/23 13:00:13;;;;;;;0.20;0.20;;;;;;;;;;4900491;29;20040;-90
2023/10/23 13:02:39;;;;;;;0.10;0.10;;;;;;;;;;4884751;29;20048;-91
2023/10/23 13:05:06;;;;;;;0.63;0.63;;;;;;;;;;4885284;29;20083;-92
2023/10/23 13:07:32;;;;;;;0.10;0.10;;;;;;;;;;4885558;29;20055;-94
2023/10/23 13:09:58;;;;;;;0.10;0.10;;;;;;;;;;4869534;29;20143;-92
2023/10/23 13:12:24;;;;;;;0.10;0.10;;;;;;;;;;4885408;29;20127;-92
2023/10/23 13:14:50;;;;;;;0.20;0.20;;;;;;;;;;4901015;29;20051;-93
2023/10/23 13:17:16;;;;;;;0.10;0.10;;;;;;;;;;4885391;29;20070;-92
2023/10/23 13:19:42;;;;;;;0.10;0.10;;;;;;;;;;4886063;29;20035;-96
2023/10/23 13:22:14;;;;;;;0.30;0.30;;;;;;;;;;4874725;29;20052;-91
2023/10/23 13:24:40;;;;;;;0.10;0.10;;;;;;;;;;4885115;29;20056;-92
2023/10/23 13:27:06;;;;;;;0.15;0.15;;;;;;;;;;4884880;29;20059;-89
2023/10/23 13:29:32;;;;;;;0.10;0.10;;;;;;;;;;4884013;29;20048;-88
2023/10/23 13:32:01;;;;;;;0.10;0.10;;;;;;;;;;4884395;29;20409;-91
2023/10/23 13:34:27;;;;;;;1.35;0.30;;;;;;;;;;4884539;29;20044;-90
2023/10/23 13:36:53;;;;;;;0.10;0.10;;;;;;;;;;4884747;29;20036;-92
2023/10/23 13:39:21;;;;;;;0.10;0.10;;;;;;;;;;4885975;29;20487;-91
2023/10/23 13:41:47;;;;;;;0.10;0.10;;;;;;;;;;4887289;29;20040;-93
2023/10/23 13:44:13;;;;;;;0.10;0.10;;;;;;;;;;4867275;29;20045;-92
2023/10/23 13:46:41;;;;;;;0.10;0.10;;;;;;;;;;4883730;29;20494;-93
2023/10/23 13:49:07;;;;;;;0.43;0.43;;;;;;;;;;4867498;29;20045;-92
2023/10/23 13:51:33;;;;;;;0.32;0.32;;;;;;;;;;4866370;29;20557;-92
2023/10/23 13:53:59;;;;;;;0.10;0.10;;;;;;;;;;4881341;29;20056;-92
2023/10/23 13:56:25;;;;;;;0.20;0.20;;;;;;;;;;4866118;29;20041;-91
2023/10/23 13:58:52;;;;;;;1.08;0.43;;;;;;;;;;4865930;29;20041;-91
2023/10/23 14:01:18;;;;;;;0.10;0.10;;;;;;;;;;4865862;29;20614;-92
2023/10/23 14:03:44;;;;;;;0.10;0.10;;;;;;;;;;4865536;29;20044;-90
2023/10/23 14:06:10;;;;;;;0.35;0.35;;;;;;;;;;5076713;23;20063;-90
2023/10/23 14:08:41;;;;;;;0.68;0.68;;;;;;;;;;4881915;29;20051;-90
2023/10/23 14:11:07;;;;;;;0.15;0.15;;;;;;;;;;4866057;29;20048;-90
2023/10/23 14:13:34;;;;;;;0.93;0.52;;;;;;;;;;4865471;29;20049;-89
2023/10/23 14:16:00;;;;;;;0.20;0.20;;;;;;;;;;4865729;29;20082;-90
2023/10/23 14:18:26;;;;;;;0.17;0.17;;;;;;;;;;4865422;29;20041;-90
2023/10/23 14:20:52;;;;;;;0.20;0.20;;;;;;;;;;4880939;29;20047;-90
2023/10/23 14:23:18;;;;;;;0.10;0.10;;;;;;;;;;4865212;29;20048;-90
2023/10/23 14:28:40;;;;;;;0.10;0.10;;;;;;;;;;5079964;23;20135;-91
2023/10/23 14:31:06;;;;;;;0.10;0.10;;;;;;;;;;4903144;29;20527;-93
2023/10/23 14:33:32;;;;;;;0.10;0.10;;;;;;;;;;4902952;29;20044;-92
2023/10/23 14:35:58;;;;;;;0.10;0.10;;;;;;;;;;4902976;29;20118;-93
2023/10/23 14:38:24;;;;;;;0.30;0.30;;;;;;;;;;4903169;29;20090;-93
2023/10/23 14:40:54;;;;;;;0.10;0.10;;;;;;;;;;4888023;29;20375;-92
2023/10/23 14:43:21;;;;;;;0.10;0.10;;;;;;;;;;4919100;29;20044;-90
2023/10/23 14:45:51;;;;;;;0.17;0.17;;;;;;;;;;4902516;29;20624;-93
2023/10/23 14:48:18;;;;;;;0.10;0.10;;;;;;;;;;4898493;29;20035;-90
2023/10/23 14:50:44;;;;;;;0.20;0.20;;;;;;;;;;4868184;29;20044;-91
2023/10/23 14:53:11;;;;;;;0.10;0.10;;;;;;;;;;4883825;29;20044;-91
2023/10/23 14:55:37;;;;;;;0.40;0.40;;;;;;;;;;4868175;29;20040;-91
2023/10/23 14:58:09;;;;;;;0.10;0.10;;;;;;;;;;4877684;29;20044;-95
2023/10/23 15:00:35;;;;;;;0.20;0.20;;;;;;;;;;4869236;29;20111;-94